createdAt,value
2023-01-19T00:01:16.310Z,6.80
2023-01-19T00:02:37.242Z,6.80
2023-01-19T00:03:57.559Z,6.80
2023-01-19T00:05:18.112Z,6.90
2023-01-19T00:06:38.905Z,6.70
2023-01-19T00:07:59.829Z,6.80
2023-01-19T00:09:20.779Z,6.90
2023-01-19T00:10:42.159Z,6.90
2023-01-19T00:12:04.333Z,7.00
2023-01-19T00:13:25.170Z,6.90
2023-01-19T00:14:46.533Z,6.80
2023-01-19T00:16:07.454Z,6.70
2023-01-19T00:17:28.055Z,6.60
2023-01-19T00:18:49.564Z,6.50
2023-01-19T00:20:11.533Z,6.30
2023-01-19T00:21:32.304Z,6.10
2023-01-19T00:22:53.087Z,5.80
2023-01-19T00:24:13.898Z,5.70
2023-01-19T00:25:34.860Z,5.70
2023-01-19T00:26:55.949Z,5.70
2023-01-19T00:28:18.884Z,5.60
2023-01-19T00:29:39.550Z,5.50
2023-01-19T00:31:00.116Z,5.50
2023-01-19T00:32:20.694Z,5.60
2023-01-19T00:33:41.772Z,5.60
2023-01-19T00:35:02.687Z,5.70
2023-01-19T00:36:23.278Z,5.60
2023-01-19T00:37:44.013Z,5.60
2023-01-19T00:39:04.589Z,5.50
2023-01-19T00:40:25.312Z,5.60
2023-01-19T00:41:45.971Z,5.70
2023-01-19T00:43:06.730Z,5.70
2023-01-19T00:44:28.476Z,5.60
2023-01-19T00:45:49.372Z,5.50
2023-01-19T00:47:10.074Z,5.50
2023-01-19T00:48:30.920Z,5.40
2023-01-19T00:49:52.568Z,5.40
2023-01-19T00:51:13.416Z,5.40
2023-01-19T00:52:33.776Z,5.40
2023-01-19T00:53:54.568Z,5.40
2023-01-19T00:55:16.555Z,5.40
2023-01-19T00:56:37.352Z,5.30
2023-01-19T00:57:58.052Z,5.30
2023-01-19T00:59:18.505Z,5.30
2023-01-19T01:00:40.693Z,5.30
2023-01-19T01:02:01.242Z,5.30
2023-01-19T01:03:21.706Z,5.30
2023-01-19T01:04:42.396Z,5.40
2023-01-19T01:06:03.529Z,5.40
2023-01-19T01:07:24.631Z,5.40
2023-01-19T01:08:45.323Z,5.40
2023-01-19T01:10:07.395Z,5.30
2023-01-19T01:11:27.855Z,5.30
2023-01-19T01:12:54.899Z,5.40
2023-01-19T01:14:18.451Z,5.30
2023-01-19T01:15:40.369Z,5.20
2023-01-19T01:17:01.091Z,5.30
2023-01-19T01:18:22.435Z,5.30
2023-01-19T01:19:43.025Z,5.30
2023-01-19T01:21:05.494Z,5.20
2023-01-19T01:22:26.691Z,5.30
2023-01-19T01:23:58.575Z,5.30
2023-01-19T01:25:21.619Z,5.30
2023-01-19T01:26:42.550Z,5.20
2023-01-19T01:28:03.405Z,5.20
2023-01-19T01:29:24.229Z,5.10
2023-01-19T01:30:46.019Z,5.10
2023-01-19T01:32:06.737Z,5.10
2023-01-19T01:33:40.530Z,5.10
2023-01-19T01:35:02.038Z,5.10
2023-01-19T01:36:22.884Z,5.10
2023-01-19T01:37:43.370Z,5.00
2023-01-19T01:39:05.028Z,4.80
2023-01-19T01:40:25.629Z,4.80
2023-01-19T01:41:46.638Z,4.70
2023-01-19T01:43:11.385Z,4.70
2023-01-19T01:44:49.518Z,4.80
2023-01-19T01:46:11.889Z,4.80
2023-01-19T01:47:36.911Z,4.70
2023-01-19T01:49:01.527Z,4.70
2023-01-19T01:50:23.946Z,4.70
2023-01-19T01:51:46.427Z,4.70
2023-01-19T01:53:09.897Z,4.80
2023-01-19T01:54:32.786Z,4.80
2023-01-19T01:55:53.510Z,4.80
2023-01-19T01:57:14.573Z,4.80
2023-01-19T01:58:35.923Z,4.90
2023-01-19T01:59:57.519Z,4.90
2023-01-19T02:01:19.696Z,4.80
2023-01-19T02:02:40.572Z,5.00
2023-01-19T02:04:01.205Z,5.00
2023-01-19T02:05:24.623Z,5.10
2023-01-19T02:06:45.556Z,5.10
2023-01-19T02:08:10.181Z,5.10
2023-01-19T02:09:33.315Z,5.10
2023-01-19T02:10:54.880Z,5.10
2023-01-19T02:12:15.832Z,5.10
2023-01-19T02:13:38.575Z,5.10
2023-01-19T02:14:59.073Z,5.10
2023-01-19T02:16:21.395Z,5.10
2023-01-19T02:17:42.540Z,5.10
2023-01-19T02:19:03.744Z,5.10
2023-01-19T02:20:26.596Z,5.20
2023-01-19T02:21:52.741Z,5.10
2023-01-19T02:23:17.366Z,5.10
2023-01-19T02:24:39.538Z,5.10
2023-01-19T02:26:01.026Z,5.10
2023-01-19T02:27:21.608Z,4.90
2023-01-19T02:28:44.797Z,4.70
2023-01-19T02:30:06.638Z,4.70
2023-01-19T02:31:28.863Z,4.50
2023-01-19T02:32:49.694Z,4.40
2023-01-19T02:34:11.435Z,4.40
2023-01-19T02:35:32.519Z,4.30
2023-01-19T02:36:55.030Z,4.40
2023-01-19T02:38:15.720Z,4.40
2023-01-19T02:39:39.110Z,4.40
2023-01-19T02:41:01.105Z,4.50
2023-01-19T02:42:25.548Z,4.50
2023-01-19T02:43:49.924Z,4.50
2023-01-19T02:45:11.564Z,4.50
2023-01-19T02:46:31.963Z,4.50
2023-01-19T02:47:53.096Z,4.50
2023-01-19T02:49:13.851Z,4.50
2023-01-19T02:50:39.850Z,4.50
2023-01-19T02:52:00.791Z,4.40
2023-01-19T02:53:45.440Z,4.40
2023-01-19T02:55:14.048Z,4.40
2023-01-19T02:56:46.748Z,4.40
2023-01-19T02:58:11.457Z,4.40
2023-01-19T02:59:42.979Z,4.40
2023-01-19T03:01:11.278Z,4.40
2023-01-19T03:02:43.085Z,4.40
2023-01-19T03:04:10.454Z,4.40
2023-01-19T03:05:38.150Z,4.40
2023-01-19T03:07:03.407Z,4.40
2023-01-19T03:08:32.362Z,4.40
2023-01-19T03:09:57.491Z,4.40
2023-01-19T03:11:19.609Z,4.40
2023-01-19T03:12:44.595Z,4.50
2023-01-19T03:14:09.289Z,4.50
2023-01-19T03:15:32.948Z,4.40
2023-01-19T03:16:56.490Z,4.40
2023-01-19T03:18:20.992Z,4.50
2023-01-19T03:19:42.487Z,4.40
2023-01-19T03:21:06.422Z,4.50
2023-01-19T03:22:29.269Z,4.50
2023-01-19T03:23:50.600Z,4.50
2023-01-19T03:25:11.873Z,4.50
2023-01-19T03:26:39.495Z,4.40
2023-01-19T03:28:00.047Z,4.40
2023-01-19T03:29:22.739Z,4.50
2023-01-19T03:30:46.189Z,4.50
2023-01-19T03:32:11.253Z,4.60
2023-01-19T03:33:33.330Z,4.60
2023-01-19T03:34:54.617Z,4.70
2023-01-19T03:36:18.794Z,4.80
2023-01-19T03:37:42.905Z,4.80
2023-01-19T03:39:04.941Z,4.90
2023-01-19T03:40:27.329Z,4.90
2023-01-19T03:41:51.960Z,4.90
2023-01-19T03:43:13.564Z,4.90
2023-01-19T03:44:37.789Z,4.90
2023-01-19T03:45:58.946Z,4.90
2023-01-19T03:47:19.886Z,5.00
2023-01-19T03:48:40.385Z,5.10
2023-01-19T03:50:02.883Z,5.10
2023-01-19T03:51:23.644Z,5.10
2023-01-19T03:52:44.238Z,5.20
2023-01-19T03:54:05.202Z,5.10
2023-01-19T03:55:25.660Z,5.10
2023-01-19T03:56:46.237Z,5.10
2023-01-19T03:58:11.051Z,5.10
2023-01-19T03:59:31.483Z,5.10
2023-01-19T04:00:52.117Z,5.10
2023-01-19T04:02:12.903Z,5.10
2023-01-19T04:03:33.600Z,5.10
2023-01-19T04:04:53.927Z,5.20
2023-01-19T04:06:14.755Z,5.30
2023-01-19T04:07:35.193Z,5.30
2023-01-19T04:08:55.593Z,5.40
2023-01-19T04:10:17.170Z,5.40
2023-01-19T04:11:37.420Z,5.40
2023-01-19T04:12:59.154Z,5.40
2023-01-19T04:14:21.327Z,5.50
2023-01-19T04:15:41.861Z,5.60
2023-01-19T04:17:02.551Z,5.70
2023-01-19T04:18:23.018Z,5.80
2023-01-19T04:19:43.791Z,5.80
2023-01-19T04:21:07.130Z,5.80
2023-01-19T04:22:27.552Z,5.80
2023-01-19T04:23:48.170Z,5.80
2023-01-19T04:25:10.175Z,5.80
2023-01-19T04:26:30.925Z,5.80
2023-01-19T04:27:52.468Z,5.80
2023-01-19T04:29:12.928Z,5.90
2023-01-19T04:30:35.058Z,5.90
2023-01-19T04:31:55.860Z,5.90
2023-01-19T04:33:16.644Z,5.90
2023-01-19T04:34:37.364Z,5.90
2023-01-19T04:35:58.249Z,5.90
2023-01-19T04:37:19.153Z,6.00
2023-01-19T04:38:39.721Z,6.00
2023-01-19T04:40:00.308Z,6.10
2023-01-19T04:41:21.409Z,6.10
2023-01-19T04:42:43.497Z,6.10
2023-01-19T04:44:04.835Z,6.10
2023-01-19T04:45:25.387Z,6.20
2023-01-19T04:46:47.139Z,6.20
2023-01-19T04:48:08.485Z,6.10
2023-01-19T04:49:29.065Z,6.20
2023-01-19T04:50:51.338Z,6.20
2023-01-19T04:52:11.945Z,6.10
2023-01-19T04:53:32.466Z,6.10
2023-01-19T04:54:52.812Z,6.10
2023-01-19T04:56:13.578Z,6.10
2023-01-19T04:57:34.160Z,6.10
2023-01-19T04:58:54.969Z,6.10
2023-01-19T05:00:17.065Z,6.10
2023-01-19T05:01:37.437Z,6.10
2023-01-19T05:03:00.272Z,6.10
2023-01-19T05:04:20.974Z,6.20
2023-01-19T05:05:41.536Z,6.10
2023-01-19T05:07:02.171Z,6.10
2023-01-19T05:08:22.641Z,6.10
2023-01-19T05:09:43.322Z,6.20
2023-01-19T05:11:04.125Z,6.20
2023-01-19T05:12:24.572Z,6.20
2023-01-19T05:13:45.108Z,6.20
2023-01-19T05:15:06.739Z,6.20
2023-01-19T05:16:27.546Z,6.20
2023-01-19T05:17:48.108Z,6.20
2023-01-19T05:19:09.921Z,6.20
2023-01-19T05:20:30.316Z,6.20
2023-01-19T05:21:50.993Z,6.20
2023-01-19T05:23:11.532Z,6.20
2023-01-19T05:24:32.260Z,6.20
2023-01-19T05:25:52.888Z,6.30
2023-01-19T05:27:13.293Z,6.30
2023-01-19T05:28:34.030Z,6.20
2023-01-19T05:29:54.640Z,6.20
2023-01-19T05:31:16.101Z,6.20
2023-01-19T05:32:38.044Z,6.20
2023-01-19T05:33:58.602Z,6.10
2023-01-19T05:35:31.293Z,6.20
2023-01-19T05:36:56.202Z,6.20
2023-01-19T05:38:20.852Z,6.10
2023-01-19T05:39:44.145Z,6.10
2023-01-19T05:41:05.013Z,6.10
2023-01-19T05:42:25.361Z,6.10
2023-01-19T05:43:47.894Z,6.10
2023-01-19T05:45:09.463Z,6.10
2023-01-19T05:46:30.029Z,6.10
2023-01-19T05:47:50.958Z,6.10
2023-01-19T05:49:12.103Z,6.10
2023-01-19T05:50:34.728Z,6.00
2023-01-19T05:51:55.076Z,6.10
2023-01-19T05:53:15.846Z,6.10
2023-01-19T05:54:36.433Z,6.10
2023-01-19T05:56:01.053Z,6.00
2023-01-19T05:57:22.365Z,6.00
2023-01-19T05:58:42.926Z,6.00
2023-01-19T06:00:04.466Z,6.00
2023-01-19T06:01:25.160Z,6.10
2023-01-19T06:02:46.281Z,6.00
2023-01-19T06:04:07.193Z,6.10
2023-01-19T06:05:27.516Z,6.10
2023-01-19T06:06:49.382Z,6.10
2023-01-19T06:08:09.892Z,6.10
2023-01-19T06:09:30.403Z,6.10
2023-01-19T06:10:50.700Z,6.10
2023-01-19T06:12:11.017Z,6.00
2023-01-19T06:13:31.526Z,6.00
2023-01-19T06:14:52.218Z,6.10
2023-01-19T06:16:13.066Z,6.10
2023-01-19T06:17:33.949Z,6.00
2023-01-19T06:18:54.763Z,6.10
2023-01-19T06:20:15.254Z,6.10
2023-01-19T06:21:35.582Z,6.10
2023-01-19T06:22:58.480Z,6.10
2023-01-19T06:24:19.348Z,6.10
2023-01-19T06:25:39.874Z,6.20
2023-01-19T06:27:00.181Z,6.10
2023-01-19T06:28:20.560Z,6.10
2023-01-19T06:29:41.034Z,6.10
2023-01-19T06:31:02.189Z,6.10
2023-01-19T06:32:23.065Z,6.10
2023-01-19T06:33:43.834Z,6.00
2023-01-19T06:35:05.074Z,6.00
2023-01-19T06:36:25.735Z,6.00
2023-01-19T06:37:46.001Z,5.90
2023-01-19T06:39:09.450Z,5.90
2023-01-19T06:40:29.983Z,5.90
2023-01-19T06:41:51.067Z,6.00
2023-01-19T06:43:11.411Z,6.00
2023-01-19T06:44:32.132Z,6.00
2023-01-19T06:45:52.530Z,6.10
2023-01-19T06:47:15.417Z,6.10
2023-01-19T06:48:36.289Z,6.10
2023-01-19T06:49:56.852Z,6.10
2023-01-19T06:51:17.681Z,6.10
2023-01-19T06:52:38.260Z,6.10
2023-01-19T06:53:59.157Z,6.00
2023-01-19T06:55:21.300Z,5.90
2023-01-19T06:56:43.936Z,5.80
2023-01-19T06:58:04.511Z,5.80
2023-01-19T06:59:25.040Z,5.90
2023-01-19T07:00:45.772Z,5.90
2023-01-19T07:02:26.728Z,5.90
2023-01-19T07:03:47.115Z,5.90
2023-01-19T07:05:08.564Z,5.90
2023-01-19T07:06:29.041Z,6.00
2023-01-19T07:07:52.825Z,6.00
2023-01-19T07:09:15.047Z,6.00
2023-01-19T07:11:25.674Z,6.10
2023-01-19T07:12:19.050Z,6.00
2023-01-19T07:13:40.634Z,6.00
2023-01-19T07:15:01.215Z,5.90
2023-01-19T07:16:21.972Z,5.90
2023-01-19T07:17:42.975Z,5.90
2023-01-19T07:19:03.369Z,5.90
2023-01-19T07:20:23.842Z,5.90
2023-01-19T07:21:44.306Z,5.80
2023-01-19T07:23:04.980Z,5.70
2023-01-19T07:24:25.770Z,5.70
2023-01-19T07:25:47.682Z,5.70
2023-01-19T07:27:08.380Z,5.70
2023-01-19T07:28:29.335Z,5.70
2023-01-19T07:29:50.037Z,5.70
2023-01-19T07:31:10.947Z,5.70
2023-01-19T07:32:31.628Z,5.70
2023-01-19T07:33:52.127Z,5.80
2023-01-19T07:35:12.929Z,5.80
2023-01-19T07:36:33.628Z,5.80
2023-01-19T07:37:54.581Z,5.80
2023-01-19T07:39:15.470Z,5.80
2023-01-19T07:40:36.101Z,5.80
2023-01-19T07:41:58.085Z,5.80
2023-01-19T07:43:18.541Z,5.80
2023-01-19T07:44:39.241Z,5.80
2023-01-19T07:46:00.822Z,5.80
2023-01-19T07:47:21.580Z,5.80
2023-01-19T07:48:42.282Z,5.80
2023-01-19T07:50:03.090Z,5.80
2023-01-19T07:51:23.409Z,5.80
2023-01-19T07:52:44.017Z,5.80
2023-01-19T07:54:04.695Z,5.80
2023-01-19T07:55:25.337Z,5.90
2023-01-19T07:56:46.079Z,5.90
2023-01-19T07:58:08.183Z,5.90
2023-01-19T07:59:28.794Z,5.90
2023-01-19T08:00:49.577Z,5.90
2023-01-19T08:02:10.737Z,5.90
2023-01-19T08:03:31.354Z,5.80
2023-01-19T08:04:51.881Z,5.90
2023-01-19T08:06:16.682Z,5.90
2023-01-19T08:07:37.374Z,5.90
2023-01-19T08:08:58.108Z,6.00
2023-01-19T08:10:18.828Z,6.00
2023-01-19T08:11:39.337Z,6.00
2023-01-19T08:13:00.065Z,6.10
2023-01-19T08:14:22.070Z,6.10
2023-01-19T08:15:42.811Z,6.00
2023-01-19T08:17:04.114Z,6.10
2023-01-19T08:18:24.912Z,6.10
2023-01-19T08:19:45.604Z,6.10
2023-01-19T08:21:06.594Z,6.10
2023-01-19T08:22:27.036Z,6.10
2023-01-19T08:23:52.374Z,6.10
2023-01-19T08:25:13.335Z,6.00
2023-01-19T08:26:35.215Z,6.10
2023-01-19T08:27:55.806Z,6.10
2023-01-19T08:29:16.494Z,6.00
2023-01-19T08:30:38.590Z,6.00
2023-01-19T08:32:00.225Z,6.00
2023-01-19T08:33:21.668Z,6.00
2023-01-19T08:34:42.994Z,6.00
2023-01-19T08:36:04.088Z,5.90
2023-01-19T08:37:24.522Z,5.90
2023-01-19T08:38:45.178Z,5.80
2023-01-19T08:40:07.121Z,5.80
2023-01-19T08:41:27.479Z,5.80
2023-01-19T08:42:48.320Z,5.80
2023-01-19T08:44:10.330Z,5.80
2023-01-19T08:45:30.512Z,5.80
2023-01-19T08:46:52.424Z,5.80
2023-01-19T08:48:13.483Z,5.80
2023-01-19T08:49:33.950Z,5.70
2023-01-19T08:50:54.776Z,5.80
2023-01-19T08:52:15.561Z,5.80
2023-01-19T08:53:36.106Z,5.80
2023-01-19T08:54:56.720Z,5.80
2023-01-19T08:56:18.964Z,5.90
2023-01-19T08:57:40.945Z,6.00
2023-01-19T08:59:09.318Z,5.90
2023-01-19T09:00:31.447Z,6.00
2023-01-19T09:01:53.602Z,5.90
2023-01-19T09:03:14.370Z,6.00
2023-01-19T09:04:35.007Z,5.90
2023-01-19T09:05:55.599Z,5.90
2023-01-19T09:07:16.271Z,6.00
2023-01-19T09:08:37.087Z,6.00
2023-01-19T09:09:57.402Z,6.00
2023-01-19T09:11:18.082Z,6.00
2023-01-19T09:12:38.530Z,6.10
2023-01-19T09:13:59.168Z,6.10
2023-01-19T09:15:19.940Z,6.10
2023-01-19T09:16:41.125Z,6.10
2023-01-19T09:18:03.292Z,6.10
2023-01-19T09:19:23.877Z,6.20
2023-01-19T09:20:46.955Z,6.20
2023-01-19T09:22:07.266Z,6.20
2023-01-19T09:23:28.116Z,6.20
2023-01-19T09:24:48.632Z,6.30
2023-01-19T09:26:10.470Z,6.30
2023-01-19T09:27:31.135Z,6.20
2023-01-19T09:28:51.533Z,6.30
2023-01-19T09:30:13.157Z,6.30
2023-01-19T09:31:33.509Z,6.30
2023-01-19T09:32:53.954Z,6.30
2023-01-19T09:34:16.032Z,6.30
2023-01-19T09:35:37.302Z,6.30
2023-01-19T09:36:58.057Z,6.30
2023-01-19T09:38:19.500Z,6.30
2023-01-19T09:39:40.099Z,6.30
2023-01-19T09:41:01.203Z,6.30
2023-01-19T09:42:23.635Z,6.40
2023-01-19T09:43:46.142Z,6.40
2023-01-19T09:45:09.213Z,6.40
2023-01-19T09:46:34.519Z,6.50
2023-01-19T09:47:57.174Z,6.50
2023-01-19T09:49:21.475Z,6.40
2023-01-19T09:50:44.099Z,6.50
2023-01-19T09:52:05.281Z,6.50
2023-01-19T09:53:35.055Z,6.50
2023-01-19T09:54:56.972Z,6.50
2023-01-19T09:56:19.038Z,6.50
2023-01-19T09:57:39.440Z,6.50
2023-01-19T09:59:00.490Z,6.60
2023-01-19T10:00:22.311Z,6.60
2023-01-19T10:01:53.055Z,6.60
2023-01-19T10:03:16.087Z,6.60
2023-01-19T10:04:40.202Z,6.60
2023-01-19T10:06:02.729Z,6.60
2023-01-19T10:07:33.502Z,6.60
2023-01-19T10:08:59.029Z,6.70
2023-01-19T10:10:21.719Z,6.70
2023-01-19T10:11:52.771Z,6.70
2023-01-19T10:13:29.806Z,6.70
2023-01-19T10:14:57.405Z,6.60
2023-01-19T10:16:28.739Z,6.70
2023-01-19T10:18:00.336Z,6.70
2023-01-19T10:19:23.515Z,6.70
2023-01-19T10:20:49.529Z,6.70
2023-01-19T10:22:18.059Z,6.70
2023-01-19T10:23:43.943Z,6.70
2023-01-19T10:25:10.811Z,6.70
2023-01-19T10:26:34.016Z,6.70
2023-01-19T10:27:54.181Z,6.70
2023-01-19T10:29:19.829Z,6.70
2023-01-19T10:30:43.169Z,6.70
2023-01-19T10:32:07.327Z,6.70
2023-01-19T10:33:28.453Z,6.70
2023-01-19T10:34:50.073Z,6.80
2023-01-19T10:36:17.312Z,6.80
2023-01-19T10:37:38.509Z,6.80
2023-01-19T10:38:59.021Z,6.80
2023-01-19T10:40:29.228Z,6.80
2023-01-19T10:43:36.056Z,6.80
2023-01-19T10:44:56.569Z,6.80
2023-01-19T10:46:27.136Z,6.70
2023-01-19T10:47:48.304Z,6.80
2023-01-19T10:49:23.147Z,6.80
2023-01-19T10:50:43.789Z,6.90
2023-01-19T10:52:07.296Z,6.90
2023-01-19T10:53:28.228Z,6.90
2023-01-19T10:54:49.241Z,6.90
2023-01-19T10:56:13.693Z,6.90
2023-01-19T10:57:36.237Z,6.90
2023-01-19T10:58:56.976Z,6.90
2023-01-19T11:00:34.857Z,6.90
2023-01-19T11:02:04.062Z,6.90
2023-01-19T11:03:28.405Z,6.80
2023-01-19T11:04:50.741Z,6.90
2023-01-19T11:06:26.756Z,6.90
2023-01-19T11:07:48.870Z,6.90
2023-01-19T11:09:12.689Z,6.90
2023-01-19T11:10:33.249Z,7.00
2023-01-19T11:11:53.874Z,7.00
2023-01-19T11:13:14.450Z,7.00
2023-01-19T11:14:34.795Z,7.00
2023-01-19T11:15:57.328Z,7.10
2023-01-19T11:17:20.686Z,7.00
2023-01-19T11:18:41.507Z,7.00
2023-01-19T11:20:02.930Z,6.90
2023-01-19T11:21:25.823Z,7.00
2023-01-19T11:22:48.878Z,7.00
2023-01-19T11:24:11.232Z,7.00
2023-01-19T11:25:33.297Z,7.10
2023-01-19T11:26:56.517Z,7.10
2023-01-19T11:28:18.863Z,7.00
2023-01-19T11:29:39.166Z,6.90
2023-01-19T11:31:01.386Z,7.00
2023-01-19T11:32:23.504Z,7.10
2023-01-19T11:33:50.777Z,7.00
2023-01-19T11:35:34.558Z,7.10
2023-01-19T11:37:01.621Z,7.20
2023-01-19T11:38:23.407Z,7.30
2023-01-19T11:39:47.540Z,7.30
2023-01-19T11:41:16.420Z,7.20
2023-01-19T11:42:37.347Z,7.30
2023-01-19T11:44:00.313Z,7.30
2023-01-19T11:45:20.739Z,7.30
2023-01-19T11:46:44.381Z,7.20
2023-01-19T11:48:06.382Z,7.40
2023-01-19T11:49:31.932Z,7.30
2023-01-19T11:50:53.149Z,7.30
2023-01-19T11:52:26.182Z,7.30
2023-01-19T11:53:51.586Z,7.40
2023-01-19T11:55:18.779Z,7.40
2023-01-19T11:56:39.204Z,7.50
2023-01-19T11:58:00.241Z,7.60
2023-01-19T11:59:22.384Z,7.60
2023-01-19T12:00:44.711Z,7.60
2023-01-19T12:02:15.940Z,7.50
2023-01-19T12:03:40.569Z,7.50
2023-01-19T12:05:06.651Z,7.50
2023-01-19T12:06:30.834Z,7.60
2023-01-19T12:07:52.062Z,7.50
2023-01-19T12:09:15.259Z,7.60
2023-01-19T12:10:38.947Z,7.60
2023-01-19T12:12:03.340Z,7.50
2023-01-19T12:13:26.022Z,7.70
2023-01-19T12:14:52.709Z,7.60
2023-01-19T12:16:19.214Z,7.70
2023-01-19T12:17:45.137Z,7.70
2023-01-19T12:19:16.131Z,7.70
2023-01-19T12:20:38.909Z,7.80
2023-01-19T12:21:59.731Z,7.90
2023-01-19T12:23:29.286Z,7.90
2023-01-19T12:24:55.160Z,7.90
2023-01-19T12:26:25.406Z,7.90
2023-01-19T12:27:46.961Z,7.90
2023-01-19T12:29:12.062Z,7.90
2023-01-19T12:30:32.390Z,7.80
2023-01-19T12:32:18.041Z,7.70
2023-01-19T12:33:39.359Z,7.60
2023-01-19T12:35:00.092Z,7.60
2023-01-19T12:36:36.906Z,7.50
2023-01-19T12:37:57.367Z,7.30
2023-01-19T12:39:19.438Z,7.20
2023-01-19T12:40:41.282Z,7.10
2023-01-19T12:42:08.030Z,7.10
2023-01-19T12:43:28.473Z,7.10
2023-01-19T12:44:49.086Z,7.10
2023-01-19T12:46:19.723Z,7.20
2023-01-19T12:47:40.186Z,7.20
2023-01-19T12:49:04.504Z,7.20
2023-01-19T12:50:25.559Z,7.20
2023-01-19T12:51:46.526Z,7.20
2023-01-19T12:53:18.099Z,7.30
2023-01-19T12:54:40.990Z,7.70
2023-01-19T12:56:04.140Z,7.70
2023-01-19T12:57:27.396Z,7.70
2023-01-19T12:58:48.976Z,7.90
2023-01-19T13:00:35.457Z,7.90
2023-01-19T13:02:32.954Z,8.10
2023-01-19T13:04:04.950Z,8.20
2023-01-19T13:05:48.397Z,8.20
2023-01-19T13:07:10.115Z,8.30
2023-01-19T13:08:58.384Z,8.30
2023-01-19T13:11:05.615Z,8.40
2023-01-19T13:12:27.633Z,8.50
2023-01-19T13:14:24.487Z,8.60
2023-01-19T13:15:45.227Z,8.70
2023-01-19T13:17:24.871Z,8.70
2023-01-19T13:18:47.920Z,8.60
2023-01-19T13:20:26.664Z,8.70
2023-01-19T13:21:48.668Z,8.70
2023-01-19T13:23:22.124Z,8.70
2023-01-19T13:25:04.442Z,8.70
2023-01-19T13:26:27.648Z,8.70
2023-01-19T13:27:49.987Z,8.70
2023-01-19T13:29:14.398Z,8.60
2023-01-19T13:30:35.529Z,8.60
2023-01-19T13:31:56.865Z,8.60
2023-01-19T13:33:20.586Z,8.50
2023-01-19T13:34:44.765Z,8.50
2023-01-19T13:36:16.929Z,8.50
2023-01-19T13:37:40.123Z,8.30
2023-01-19T13:39:02.494Z,8.20
2023-01-19T13:40:25.468Z,8.10
2023-01-19T13:41:47.206Z,8.00
2023-01-19T13:43:17.397Z,8.00
2023-01-19T13:44:42.150Z,8.10
2023-01-19T13:46:02.686Z,8.10
2023-01-19T13:47:25.248Z,8.10
2023-01-19T13:48:54.029Z,8.20
2023-01-19T13:50:20.145Z,8.30
2023-01-19T13:51:41.052Z,8.50
2023-01-19T13:53:01.891Z,8.60
2023-01-19T13:54:22.640Z,8.70
2023-01-19T13:55:43.245Z,8.60
2023-01-19T13:57:04.336Z,8.70
2023-01-19T13:58:26.297Z,8.70
2023-01-19T14:00:05.551Z,8.70
2023-01-19T14:01:28.992Z,8.50
2023-01-19T14:02:55.903Z,8.60
2023-01-19T14:04:25.522Z,8.60
2023-01-19T14:05:45.903Z,8.60
2023-01-19T14:07:11.777Z,8.60
2023-01-19T14:08:32.575Z,8.50
2023-01-19T14:10:03.018Z,8.70
2023-01-19T14:11:23.933Z,8.60
2023-01-19T14:12:58.459Z,8.60
2023-01-19T14:14:27.886Z,8.60
2023-01-19T14:15:50.509Z,8.70
2023-01-19T14:17:26.252Z,8.60
2023-01-19T14:18:46.634Z,8.60
2023-01-19T14:20:27.701Z,8.50
2023-01-19T14:21:58.860Z,8.50
2023-01-19T14:23:45.320Z,8.50
2023-01-19T14:25:27.872Z,8.60
2023-01-19T14:26:49.590Z,8.90
2023-01-19T14:28:29.489Z,9.00
2023-01-19T14:29:52.332Z,8.80
2023-01-19T14:31:21.211Z,8.90
2023-01-19T14:32:45.815Z,9.10
2023-01-19T14:34:34.160Z,9.10
2023-01-19T14:35:54.776Z,9.10
2023-01-19T14:37:20.843Z,9.10
2023-01-19T14:38:43.456Z,9.30
2023-01-19T14:40:16.801Z,9.20
2023-01-19T14:41:39.275Z,9.20
2023-01-19T14:43:01.196Z,8.90
2023-01-19T14:44:28.142Z,8.80
2023-01-19T14:45:50.158Z,8.50
2023-01-19T14:47:22.366Z,8.50
2023-01-19T14:48:46.507Z,8.60
2023-01-19T14:50:09.658Z,8.70
2023-01-19T14:51:31.259Z,8.80
2023-01-19T14:52:54.643Z,8.80
2023-01-19T14:54:17.016Z,8.70
2023-01-19T14:55:39.721Z,8.90
2023-01-19T14:57:00.420Z,9.10
2023-01-19T14:58:22.928Z,8.90
2023-01-19T14:59:43.196Z,9.00
2023-01-19T15:01:05.855Z,8.90
2023-01-19T15:02:27.049Z,8.80
2023-01-19T15:03:47.752Z,8.60
2023-01-19T15:05:09.073Z,8.60
2023-01-19T15:06:30.290Z,8.60
2023-01-19T15:07:51.032Z,8.40
2023-01-19T15:09:13.008Z,8.30
2023-01-19T15:10:35.445Z,8.10
2023-01-19T15:11:56.344Z,8.20
2023-01-19T15:13:20.085Z,8.20
2023-01-19T15:14:40.957Z,8.00
2023-01-19T15:16:01.910Z,7.90
2023-01-19T15:17:24.161Z,7.80
2023-01-19T15:18:44.595Z,7.60
2023-01-19T15:20:09.808Z,7.50
2023-01-19T15:21:30.510Z,7.50
2023-01-19T15:22:51.012Z,7.50
2023-01-19T15:24:12.858Z,7.60
2023-01-19T15:25:33.310Z,7.60
2023-01-19T15:26:53.832Z,7.60
2023-01-19T15:28:19.967Z,7.60
2023-01-19T15:29:40.413Z,7.70
2023-01-19T15:31:01.195Z,7.60
2023-01-19T15:32:21.862Z,7.60
2023-01-19T15:33:43.981Z,7.60
2023-01-19T15:35:11.824Z,7.50
2023-01-19T15:36:32.359Z,7.40
2023-01-19T15:37:52.809Z,7.50
2023-01-19T15:39:13.123Z,7.50
2023-01-19T15:40:33.798Z,7.50
2023-01-19T15:41:54.522Z,7.60
2023-01-19T15:43:14.985Z,7.60
2023-01-19T15:44:35.616Z,7.60
2023-01-19T15:46:00.389Z,7.50
2023-01-19T15:47:20.969Z,7.40
2023-01-19T15:48:43.134Z,7.40
2023-01-19T15:50:03.955Z,7.30
2023-01-19T15:51:25.669Z,7.50
2023-01-19T15:52:46.379Z,7.50
2023-01-19T15:54:09.744Z,7.50
2023-01-19T15:55:30.475Z,7.50
2023-01-19T15:56:50.817Z,7.40
2023-01-19T15:58:13.625Z,7.30
2023-01-19T15:59:34.617Z,7.40
2023-01-19T16:00:55.588Z,7.50
2023-01-19T16:02:16.312Z,7.50
2023-01-19T16:03:38.135Z,7.50
2023-01-19T16:05:00.191Z,7.40
2023-01-19T16:06:20.941Z,7.30
2023-01-19T16:07:41.329Z,7.20
2023-01-19T16:09:02.366Z,7.00
2023-01-19T16:10:23.019Z,7.10
2023-01-19T16:11:43.753Z,7.20
2023-01-19T16:13:04.741Z,7.20
2023-01-19T16:14:25.452Z,7.00
2023-01-19T16:15:45.811Z,6.80
2023-01-19T16:17:06.152Z,7.00
2023-01-19T16:18:26.937Z,7.10
2023-01-19T16:19:48.046Z,7.10
2023-01-19T16:21:10.098Z,7.10
2023-01-19T16:22:30.329Z,7.10
2023-01-19T16:23:51.415Z,7.10
2023-01-19T16:25:12.109Z,7.00
2023-01-19T16:26:34.657Z,7.00
2023-01-19T16:27:55.598Z,7.00
2023-01-19T16:29:16.322Z,7.10
2023-01-19T16:30:37.266Z,7.10
2023-01-19T16:31:58.189Z,7.20
2023-01-19T16:33:18.842Z,7.20
2023-01-19T16:34:39.585Z,7.10
2023-01-19T16:36:19.294Z,7.10
2023-01-19T16:37:39.857Z,7.10
2023-01-19T16:39:02.119Z,6.90
2023-01-19T16:40:22.929Z,6.90
2023-01-19T16:41:44.905Z,6.80
2023-01-19T16:43:05.409Z,6.70
2023-01-19T16:44:25.965Z,6.60
2023-01-19T16:45:58.447Z,6.60
2023-01-19T16:47:19.125Z,6.60
2023-01-19T16:48:39.728Z,6.60
2023-01-19T16:50:00.700Z,6.60
2023-01-19T16:51:22.681Z,6.50
2023-01-19T16:52:43.131Z,6.50
2023-01-19T16:54:05.394Z,6.30
2023-01-19T16:55:26.101Z,6.20
2023-01-19T16:56:46.717Z,6.10
2023-01-19T16:58:08.333Z,6.00
2023-01-19T16:59:29.361Z,5.70
2023-01-19T17:00:49.970Z,5.70
2023-01-19T17:02:10.737Z,5.60
2023-01-19T17:03:31.105Z,5.40
2023-01-19T17:04:51.420Z,5.20
2023-01-19T17:06:13.879Z,5.10
2023-01-19T17:07:36.008Z,5.00
2023-01-19T17:08:58.042Z,4.80
2023-01-19T17:10:18.943Z,4.60
2023-01-19T17:11:40.337Z,4.60
2023-01-19T17:13:01.086Z,4.50
2023-01-19T17:14:22.061Z,4.60
2023-01-19T17:15:42.637Z,4.60
2023-01-19T17:17:03.670Z,4.70
2023-01-19T17:18:24.327Z,4.60
2023-01-19T17:19:44.790Z,4.50
2023-01-19T17:21:07.293Z,4.50
2023-01-19T17:22:27.787Z,4.40
2023-01-19T17:23:51.192Z,4.40
2023-01-19T17:25:12.295Z,4.40
2023-01-19T17:26:33.002Z,4.40
2023-01-19T17:27:53.479Z,4.40
2023-01-19T17:29:14.279Z,4.40
2023-01-19T17:30:34.731Z,4.40
2023-01-19T17:31:55.627Z,4.30
2023-01-19T17:33:16.115Z,4.30
2023-01-19T17:34:37.009Z,4.30
2023-01-19T17:36:02.393Z,4.30
2023-01-19T17:37:23.030Z,4.30
2023-01-19T17:38:43.569Z,4.40
2023-01-19T17:40:07.145Z,4.30
2023-01-19T17:41:32.402Z,4.40
2023-01-19T17:42:53.190Z,4.30
2023-01-19T17:44:13.785Z,4.20
2023-01-19T17:45:35.058Z,4.30
2023-01-19T17:46:55.549Z,4.30
2023-01-19T17:48:17.163Z,4.30
2023-01-19T17:49:37.710Z,4.40
2023-01-19T17:51:01.885Z,4.40
2023-01-19T17:52:22.567Z,4.50
2023-01-19T17:53:43.723Z,4.50
2023-01-19T17:55:06.575Z,4.60
2023-01-19T17:56:28.819Z,4.60
2023-01-19T17:57:49.523Z,4.50
2023-01-19T17:59:10.054Z,4.40
2023-01-19T18:00:30.759Z,4.50
2023-01-19T18:01:51.603Z,4.50
2023-01-19T18:03:11.995Z,4.50
2023-01-19T18:04:32.753Z,4.60
2023-01-19T18:05:53.720Z,4.50
2023-01-19T18:07:14.439Z,4.40
2023-01-19T18:08:35.155Z,4.60
2023-01-19T18:09:55.967Z,4.70
2023-01-19T18:11:19.451Z,4.70
2023-01-19T18:12:39.797Z,4.80
2023-01-19T18:14:00.734Z,4.90
2023-01-19T18:15:21.124Z,4.90
2023-01-19T18:16:41.990Z,4.90
2023-01-19T18:18:02.765Z,4.80
2023-01-19T18:19:23.417Z,4.90
2023-01-19T18:20:44.080Z,5.00
2023-01-19T18:22:04.761Z,5.00
2023-01-19T18:23:25.324Z,5.00
2023-01-19T18:24:46.177Z,5.00
2023-01-19T18:26:08.621Z,4.90